Lamasco, Kentucky
Current Conditions -  °F | °C
As of 8:35 AM on Monday 20 Oct 2014 (Local Time) from K5M9 Reporting Station
Overcast Overcast  
Wind Chill: 47°   Ceiling: 11000
Heat Index: 49°   Visibility: 10mi
Dew Point: 47°   Wind: 5mph
Humidity: 91%   Direction: 200°SSW
Pressure: 30.05"   Gusts: NA
Location:  37.0504°N, 88.0159°W
Report Text: K5M9 201335Z AUTO 20004KT 10SM OVC110 10/08 A3005 RMK AO2 T00950081
Loading
Personal Weather Stations






























Interactive Weather Map
Tropical Storm Tracking
New forecast layout! Learn more

10-Day Weather Forecast

Advertisements
Track Severe Weather on mobile